KAOO/AOO METAR and TAF weather

Enter ICAO airport designator
Station Type Date Time Source
KAOO METAR 2020/07/08 01:18 UTC NOAA

KAOO 080118Z AUTO 20004KT 10SM SCT025 BKN029 OVC100 24/21 A3007 RMK AO2 T02440206


Station Type Date Time Source
KAOO Decoded METAR 2020/07/08 01:18 UTC NOAA

ALTOONA-BLAIR COUNTY AIRPORT, PA, United States (KAOO) 40-18N 78-19W 455M
Jul 07, 2020 - 09:18 PM EDT / 2020.07.08 0118 UTC
Wind: from the SSW (200 degrees) at 5 MPH (4 KT):0
Visibility: 10 mile(s):0
Sky conditions: overcast
Temperature: 75.9 F (24.4 C)
Dew Point: 69.1 F (20.6 C)
Relative Humidity: 79%
Pressure (altimeter): 30.07 in. Hg (1018 hPa)
ob: KAOO 080118Z AUTO 20004KT 10SM SCT025 BKN029 OVC100 24/21 A3007 RMK AO2 T02440206
cycle: 1

Station Type Date Time Source
KAOO TAF 2020/07/07 21:21 UTC NOAA

TAF
AMD KAOO 072118Z 0721/0818 12007KT P6SM SCT045 BKN100
FM080200 00000KT P6SM SCT250
FM080900 00000KT 5SM BR SKC

Example: see airport list